sensor_id;sensor_type;location;lat;lon;timestamp;temperature;humidity
1417;DHT22;703;51.162;13.574;2023-05-27T00:00:57;8.60;99.90
1417;DHT22;703;51.162;13.574;2023-05-27T00:03:22;8.50;99.90
1417;DHT22;703;51.162;13.574;2023-05-27T00:05:48;8.50;99.90
1417;DHT22;703;51.162;13.574;2023-05-27T00:08:13;8.50;99.90
1417;DHT22;703;51.162;13.574;2023-05-27T00:10:39;8.40;99.90
1417;DHT22;703;51.162;13.574;2023-05-27T00:13:04;8.40;99.90
1417;DHT22;703;51.162;13.574;2023-05-27T00:15:30;8.40;99.90
1417;DHT22;703;51.162;13.574;2023-05-27T00:17:57;8.40;99.90
1417;DHT22;703;51.162;13.574;2023-05-27T00:20:23;8.30;99.90
1417;DHT22;703;51.162;13.574;2023-05-27T00:22:49;8.30;99.90
1417;DHT22;703;51.162;13.574;2023-05-27T00:25:15;8.30;99.90
1417;DHT22;703;51.162;13.574;2023-05-27T00:27:41;8.30;99.90
1417;DHT22;703;51.162;13.574;2023-05-27T00:30:07;8.30;99.90
1417;DHT22;703;51.162;13.574;2023-05-27T00:32:33;8.30;99.90
1417;DHT22;703;51.162;13.574;2023-05-27T00:34:58;8.10;99.90
1417;DHT22;703;51.162;13.574;2023-05-27T00:37:24;8.10;99.90
1417;DHT22;703;51.162;13.574;2023-05-27T00:39:49;8.00;99.90
1417;DHT22;703;51.162;13.574;2023-05-27T00:42:15;7.90;99.90
1417;DHT22;703;51.162;13.574;2023-05-27T00:44:40;7.80;99.90
1417;DHT22;703;51.162;13.574;2023-05-27T00:47:06;7.70;99.90
1417;DHT22;703;51.162;13.574;2023-05-27T00:49:31;7.70;99.90
1417;DHT22;703;51.162;13.574;2023-05-27T00:51:57;7.60;99.90
1417;DHT22;703;51.162;13.574;2023-05-27T00:54:26;7.50;99.90
1417;DHT22;703;51.162;13.574;2023-05-27T00:56:51;7.50;99.90
1417;DHT22;703;51.162;13.574;2023-05-27T00:59:17;7.40;99.90
1417;DHT22;703;51.162;13.574;2023-05-27T01:01:43;7.40;99.90
1417;DHT22;703;51.162;13.574;2023-05-27T01:04:09;7.30;99.90
1417;DHT22;703;51.162;13.574;2023-05-27T01:09:44;7.40;99.90
1417;DHT22;703;51.162;13.574;2023-05-27T01:12:15;7.30;99.90
1417;DHT22;703;51.162;13.574;2023-05-27T01:14:41;7.30;99.90
1417;DHT22;703;51.162;13.574;2023-05-27T01:17:08;7.20;99.90
1417;DHT22;703;51.162;13.574;2023-05-27T01:19:36;7.30;99.90
1417;DHT22;703;51.162;13.574;2023-05-27T01:22:03;7.20;99.90
1417;DHT22;703;51.162;13.574;2023-05-27T01:24:30;7.20;99.90
1417;DHT22;703;51.162;13.574;2023-05-27T01:26:56;7.10;99.90
1417;DHT22;703;51.162;13.574;2023-05-27T01:29:22;7.20;99.90
1417;DHT22;703;51.162;13.574;2023-05-27T01:31:53;7.20;99.90
1417;DHT22;703;51.162;13.574;2023-05-27T01:34:23;7.30;99.90
1417;DHT22;703;51.162;13.574;2023-05-27T01:36:51;7.30;99.90
1417;DHT22;703;51.162;13.574;2023-05-27T01:39:20;7.30;99.90
1417;DHT22;703;51.162;13.574;2023-05-27T01:41:46;7.40;99.90
1417;DHT22;703;51.162;13.574;2023-05-27T01:44:12;7.40;99.90
1417;DHT22;703;51.162;13.574;2023-05-27T01:46:40;7.30;99.90
1417;DHT22;703;51.162;13.574;2023-05-27T01:49:06;7.20;99.90
1417;DHT22;703;51.162;13.574;2023-05-27T01:51:31;7.20;99.90
1417;DHT22;703;51.162;13.574;2023-05-27T01:53:57;7.10;99.90
1417;DHT22;703;51.162;13.574;2023-05-27T01:56:22;7.10;99.90
1417;DHT22;703;51.162;13.574;2023-05-27T01:58:48;7.00;99.90
1417;DHT22;703;51.162;13.574;2023-05-27T02:01:13;7.00;99.90
1417;DHT22;703;51.162;13.574;2023-05-27T02:03:39;7.00;99.90
1417;DHT22;703;51.162;13.574;2023-05-27T02:06:05;6.90;99.90
1417;DHT22;703;51.162;13.574;2023-05-27T02:08:31;6.80;99.90
1417;DHT22;703;51.162;13.574;2023-05-27T02:10:56;7.00;99.90
1417;DHT22;703;51.162;13.574;2023-05-27T02:13:22;7.10;99.90
1417;DHT22;703;51.162;13.574;2023-05-27T02:15:47;7.00;99.90
1417;DHT22;703;51.162;13.574;2023-05-27T02:18:13;6.90;99.90
1417;DHT22;703;51.162;13.574;2023-05-27T02:20:38;6.90;99.90
1417;DHT22;703;51.162;13.574;2023-05-27T02:23:05;6.80;99.90
1417;DHT22;703;51.162;13.574;2023-05-27T02:25:31;6.80;99.90
1417;DHT22;703;51.162;13.574;2023-05-27T02:27:56;6.90;99.90
1417;DHT22;703;51.162;13.574;2023-05-27T02:30:22;6.80;99.90
1417;DHT22;703;51.162;13.574;2023-05-27T02:32:47;6.80;99.90
1417;DHT22;703;51.162;13.574;2023-05-27T02:35:13;6.70;99.90
1417;DHT22;703;51.162;13.574;2023-05-27T02:37:42;6.70;99.90
1417;DHT22;703;51.162;13.574;2023-05-27T02:40:08;6.70;99.90
1417;DHT22;703;51.162;13.574;2023-05-27T02:42:34;6.70;99.90
1417;DHT22;703;51.162;13.574;2023-05-27T02:45:00;6.60;99.90
1417;DHT22;703;51.162;13.574;2023-05-27T02:47:25;6.60;99.90
1417;DHT22;703;51.162;13.574;2023-05-27T02:49:51;6.60;99.90
1417;DHT22;703;51.162;13.574;2023-05-27T02:52:16;6.60;99.90
1417;DHT22;703;51.162;13.574;2023-05-27T02:54:45;6.50;99.90
1417;DHT22;703;51.162;13.574;2023-05-27T02:57:10;6.50;99.90
1417;DHT22;703;51.162;13.574;2023-05-27T02:59:36;6.40;99.90
1417;DHT22;703;51.162;13.574;2023-05-27T03:02:01;6.30;99.90
1417;DHT22;703;51.162;13.574;2023-05-27T03:04:27;6.30;99.90
1417;DHT22;703;51.162;13.574;2023-05-27T03:06:53;6.30;99.90
1417;DHT22;703;51.162;13.574;2023-05-27T03:09:20;6.30;99.90
1417;DHT22;703;51.162;13.574;2023-05-27T03:11:45;6.30;99.90
1417;DHT22;703;51.162;13.574;2023-05-27T03:14:11;6.20;99.90
1417;DHT22;703;51.162;13.574;2023-05-27T03:16:36;6.20;99.90
1417;DHT22;703;51.162;13.574;2023-05-27T03:19:01;6.10;99.90
1417;DHT22;703;51.162;13.574;2023-05-27T03:21:27;6.10;99.90
1417;DHT22;703;51.162;13.574;2023-05-27T03:23:53;6.10;99.90
1417;DHT22;703;51.162;13.574;2023-05-27T03:26:18;6.20;99.90
1417;DHT22;703;51.162;13.574;2023-05-27T03:28:44;6.20;99.90
1417;DHT22;703;51.162;13.574;2023-05-27T03:31:09;6.20;99.90
1417;DHT22;703;51.162;13.574;2023-05-27T03:33:37;6.20;99.90
1417;DHT22;703;51.162;13.574;2023-05-27T03:36:03;6.20;99.90
1417;DHT22;703;51.162;13.574;2023-05-27T03:38:29;6.30;99.90
1417;DHT22;703;51.162;13.574;2023-05-27T03:40:54;6.30;99.90
1417;DHT22;703;51.162;13.574;2023-05-27T03:43:20;6.30;99.90
1417;DHT22;703;51.162;13.574;2023-05-27T03:45:45;6.30;99.90
1417;DHT22;703;51.162;13.574;2023-05-27T03:48:11;6.40;99.90
1417;DHT22;703;51.162;13.574;2023-05-27T03:50:36;6.40;99.90
1417;DHT22;703;51.162;13.574;2023-05-27T03:53:02;6.40;99.90
1417;DHT22;703;51.162;13.574;2023-05-27T03:55:27;6.40;99.90
1417;DHT22;703;51.162;13.574;2023-05-27T03:57:53;6.50;99.90
1417;DHT22;703;51.162;13.574;2023-05-27T04:00:18;6.60;99.90
1417;DHT22;703;51.162;13.574;2023-05-27T04:02:44;6.60;99.90
1417;DHT22;703;51.162;13.574;2023-05-27T04:05:09;6.70;99.90
1417;DHT22;703;51.162;13.574;2023-05-27T04:07:36;6.80;99.90
1417;DHT22;703;51.162;13.574;2023-05-27T04:10:01;6.80;99.90
1417;DHT22;703;51.162;13.574;2023-05-27T04:12:27;6.90;99.90
1417;DHT22;703;51.162;13.574;2023-05-27T04:14:52;7.00;99.90
1417;DHT22;703;51.162;13.574;2023-05-27T04:17:18;7.00;99.90
1417;DHT22;703;51.162;13.574;2023-05-27T04:19:43;7.10;99.90
1417;DHT22;703;51.162;13.574;2023-05-27T04:22:09;7.20;99.90
1417;DHT22;703;51.162;13.574;2023-05-27T04:24:34;7.30;99.90
1417;DHT22;703;51.162;13.574;2023-05-27T04:27:00;7.30;99.90
1417;DHT22;703;51.162;13.574;2023-05-27T04:29:26;7.50;99.90
1417;DHT22;703;51.162;13.574;2023-05-27T04:31:52;7.70;99.90
1417;DHT22;703;51.162;13.574;2023-05-27T04:34:18;7.90;99.90
1417;DHT22;703;51.162;13.574;2023-05-27T04:36:44;8.00;99.90
1417;DHT22;703;51.162;13.574;2023-05-27T04:39:15;8.10;99.90
1417;DHT22;703;51.162;13.574;2023-05-27T04:41:40;8.20;99.90
1417;DHT22;703;51.162;13.574;2023-05-27T04:44:06;8.40;99.90
1417;DHT22;703;51.162;13.574;2023-05-27T04:46:32;8.40;99.90
1417;DHT22;703;51.162;13.574;2023-05-27T04:48:58;8.50;99.90
1417;DHT22;703;51.162;13.574;2023-05-27T04:51:24;8.60;99.90
1417;DHT22;703;51.162;13.574;2023-05-27T04:53:50;8.50;99.90
1417;DHT22;703;51.162;13.574;2023-05-27T04:56:16;8.60;99.90
1417;DHT22;703;51.162;13.574;2023-05-27T04:58:45;8.60;99.90
1417;DHT22;703;51.162;13.574;2023-05-27T05:01:14;8.60;99.90
1417;DHT22;703;51.162;13.574;2023-05-27T05:03:45;8.70;99.90
1417;DHT22;703;51.162;13.574;2023-05-27T05:06:29;8.80;99.90
1417;DHT22;703;51.162;13.574;2023-05-27T05:08:55;8.80;99.90
1417;DHT22;703;51.162;13.574;2023-05-27T05:11:21;9.10;99.90
1417;DHT22;703;51.162;13.574;2023-05-27T05:13:47;9.10;99.90
1417;DHT22;703;51.162;13.574;2023-05-27T05:16:12;9.00;99.90
1417;DHT22;703;51.162;13.574;2023-05-27T05:18:38;9.10;99.90
1417;DHT22;703;51.162;13.574;2023-05-27T05:21:03;9.10;99.90
1417;DHT22;703;51.162;13.574;2023-05-27T05:23:29;9.30;99.90
1417;DHT22;703;51.162;13.574;2023-05-27T05:25:55;9.20;99.90
1417;DHT22;703;51.162;13.574;2023-05-27T05:28:24;9.60;99.90
1417;DHT22;703;51.162;13.574;2023-05-27T05:30:49;9.60;99.90
1417;DHT22;703;51.162;13.574;2023-05-27T05:33:15;9.70;99.90
1417;DHT22;703;51.162;13.574;2023-05-27T05:35:40;9.80;99.90
1417;DHT22;703;51.162;13.574;2023-05-27T05:38:06;9.90;99.90
1417;DHT22;703;51.162;13.574;2023-05-27T05:40:32;10.10;99.90
1417;DHT22;703;51.162;13.574;2023-05-27T05:42:57;10.10;99.90
1417;DHT22;703;51.162;13.574;2023-05-27T05:45:23;10.30;99.90
1417;DHT22;703;51.162;13.574;2023-05-27T05:47:49;10.50;99.90
1417;DHT22;703;51.162;13.574;2023-05-27T05:50:15;10.60;99.90
1417;DHT22;703;51.162;13.574;2023-05-27T05:52:40;10.70;99.90
1417;DHT22;703;51.162;13.574;2023-05-27T05:55:06;10.80;99.90
1417;DHT22;703;51.162;13.574;2023-05-27T05:57:32;11.00;99.90
1417;DHT22;703;51.162;13.574;2023-05-27T05:59:57;11.20;99.90
1417;DHT22;703;51.162;13.574;2023-05-27T06:02:23;11.30;99.90
1417;DHT22;703;51.162;13.574;2023-05-27T06:04:48;11.60;99.90
1417;DHT22;703;51.162;13.574;2023-05-27T06:07:14;12.10;99.90
1417;DHT22;703;51.162;13.574;2023-05-27T06:09:39;12.20;99.90
1417;DHT22;703;51.162;13.574;2023-05-27T06:12:05;12.50;99.90
1417;DHT22;703;51.162;13.574;2023-05-27T06:14:31;12.20;99.90
1417;DHT22;703;51.162;13.574;2023-05-27T06:16:57;12.50;99.90
1417;DHT22;703;51.162;13.574;2023-05-27T06:19:22;12.60;99.90
1417;DHT22;703;51.162;13.574;2023-05-27T06:21:48;12.30;99.90
1417;DHT22;703;51.162;13.574;2023-05-27T06:24:13;12.30;99.90
1417;DHT22;703;51.162;13.574;2023-05-27T06:26:40;12.50;99.90
1417;DHT22;703;51.162;13.574;2023-05-27T06:29:05;12.80;99.90
1417;DHT22;703;51.162;13.574;2023-05-27T06:31:31;12.90;99.90
1417;DHT22;703;51.162;13.574;2023-05-27T06:33:58;12.90;99.90
1417;DHT22;703;51.162;13.574;2023-05-27T06:36:26;13.00;99.90
1417;DHT22;703;51.162;13.574;2023-05-27T06:38:53;12.80;99.90
1417;DHT22;703;51.162;13.574;2023-05-27T06:41:18;13.00;99.90
1417;DHT22;703;51.162;13.574;2023-05-27T06:43:44;13.30;99.90
1417;DHT22;703;51.162;13.574;2023-05-27T06:46:09;13.20;99.90
1417;DHT22;703;51.162;13.574;2023-05-27T06:48:35;13.30;99.90
1417;DHT22;703;51.162;13.574;2023-05-27T06:51:00;13.50;99.90
1417;DHT22;703;51.162;13.574;2023-05-27T06:53:26;13.60;99.90
1417;DHT22;703;51.162;13.574;2023-05-27T06:55:52;13.80;99.90
1417;DHT22;703;51.162;13.574;2023-05-27T06:58:17;13.60;99.90
1417;DHT22;703;51.162;13.574;2023-05-27T07:00:43;13.60;99.90
1417;DHT22;703;51.162;13.574;2023-05-27T07:03:08;13.80;99.90
1417;DHT22;703;51.162;13.574;2023-05-27T07:05:34;13.90;99.90
1417;DHT22;703;51.162;13.574;2023-05-27T07:07:59;13.50;99.90
1417;DHT22;703;51.162;13.574;2023-05-27T07:10:28;13.60;99.90
1417;DHT22;703;51.162;13.574;2023-05-27T07:12:53;13.60;99.90
1417;DHT22;703;51.162;13.574;2023-05-27T07:15:19;13.60;99.90
1417;DHT22;703;51.162;13.574;2023-05-27T07:17:45;14.00;99.90
1417;DHT22;703;51.162;13.574;2023-05-27T07:20:10;14.00;99.90
1417;DHT22;703;51.162;13.574;2023-05-27T07:22:36;13.90;99.90
1417;DHT22;703;51.162;13.574;2023-05-27T07:25:02;14.00;99.90
1417;DHT22;703;51.162;13.574;2023-05-27T07:27:27;14.00;99.90
1417;DHT22;703;51.162;13.574;2023-05-27T07:29:53;14.30;99.90
1417;DHT22;703;51.162;13.574;2023-05-27T07:32:19;14.30;99.90
1417;DHT22;703;51.162;13.574;2023-05-27T07:34:44;14.40;99.90
1417;DHT22;703;51.162;13.574;2023-05-27T07:37:10;14.70;99.90
1417;DHT22;703;51.162;13.574;2023-05-27T07:39:36;14.90;99.90
1417;DHT22;703;51.162;13.574;2023-05-27T07:42:01;15.00;99.90
1417;DHT22;703;51.162;13.574;2023-05-27T07:44:27;15.10;99.90
1417;DHT22;703;51.162;13.574;2023-05-27T07:46:53;14.90;99.90
1417;DHT22;703;51.162;13.574;2023-05-27T07:49:18;14.50;99.90
1417;DHT22;703;51.162;13.574;2023-05-27T07:51:44;14.30;99.90
1417;DHT22;703;51.162;13.574;2023-05-27T07:54:09;14.50;99.90
1417;DHT22;703;51.162;13.574;2023-05-27T07:56:35;14.40;99.90
1417;DHT22;703;51.162;13.574;2023-05-27T07:59:00;14.90;99.90
1417;DHT22;703;51.162;13.574;2023-05-27T08:01:26;15.20;99.90
1417;DHT22;703;51.162;13.574;2023-05-27T08:03:56;15.30;99.90
1417;DHT22;703;51.162;13.574;2023-05-27T08:06:21;14.90;99.90
1417;DHT22;703;51.162;13.574;2023-05-27T08:08:47;14.80;99.90
1417;DHT22;703;51.162;13.574;2023-05-27T08:11:13;14.90;99.90
1417;DHT22;703;51.162;13.574;2023-05-27T08:13:38;14.70;99.90
1417;DHT22;703;51.162;13.574;2023-05-27T08:16:04;14.60;99.90
1417;DHT22;703;51.162;13.574;2023-05-27T08:18:30;15.20;99.90
1417;DHT22;703;51.162;13.574;2023-05-27T08:20:55;15.00;99.90
1417;DHT22;703;51.162;13.574;2023-05-27T08:23:20;15.70;99.90
1417;DHT22;703;51.162;13.574;2023-05-27T08:25:46;16.30;99.90
1417;DHT22;703;51.162;13.574;2023-05-27T08:28:11;16.30;99.90
1417;DHT22;703;51.162;13.574;2023-05-27T08:30:37;16.40;99.90
1417;DHT22;703;51.162;13.574;2023-05-27T08:33:02;16.40;99.90
1417;DHT22;703;51.162;13.574;2023-05-27T08:35:28;16.90;99.90
1417;DHT22;703;51.162;13.574;2023-05-27T08:37:53;16.80;99.90
1417;DHT22;703;51.162;13.574;2023-05-27T08:40:19;17.00;99.90
1417;DHT22;703;51.162;13.574;2023-05-27T08:42:47;16.90;99.90
1417;DHT22;703;51.162;13.574;2023-05-27T08:45:13;17.20;99.90
1417;DHT22;703;51.162;13.574;2023-05-27T08:47:39;17.00;99.90
1417;DHT22;703;51.162;13.574;2023-05-27T08:50:05;17.20;99.90
1417;DHT22;703;51.162;13.574;2023-05-27T08:52:32;17.40;99.90
1417;DHT22;703;51.162;13.574;2023-05-27T08:54:58;17.40;99.90
1417;DHT22;703;51.162;13.574;2023-05-27T08:57:28;17.70;99.90
1417;DHT22;703;51.162;13.574;2023-05-27T08:59:54;20.70;99.90
1417;DHT22;703;51.162;13.574;2023-05-27T09:02:20;18.10;99.90
1417;DHT22;703;51.162;13.574;2023-05-27T09:04:45;17.90;99.90
1417;DHT22;703;51.162;13.574;2023-05-27T09:07:11;18.20;99.90
1417;DHT22;703;51.162;13.574;2023-05-27T09:09:38;17.90;99.90
1417;DHT22;703;51.162;13.574;2023-05-27T09:12:04;18.20;99.90
1417;DHT22;703;51.162;13.574;2023-05-27T09:14:31;18.00;99.90
1417;DHT22;703;51.162;13.574;2023-05-27T09:16:57;18.00;99.90
1417;DHT22;703;51.162;13.574;2023-05-27T09:19:22;18.10;99.90
1417;DHT22;703;51.162;13.574;2023-05-27T09:21:51;18.30;99.90
1417;DHT22;703;51.162;13.574;2023-05-27T09:24:17;18.30;99.90
1417;DHT22;703;51.162;13.574;2023-05-27T09:26:42;18.90;99.90
1417;DHT22;703;51.162;13.574;2023-05-27T09:29:08;18.80;99.90
1417;DHT22;703;51.162;13.574;2023-05-27T09:31:40;19.10;99.90
1417;DHT22;703;51.162;13.574;2023-05-27T09:34:13;19.10;99.90
1417;DHT22;703;51.162;13.574;2023-05-27T09:36:43;18.80;99.90
1417;DHT22;703;51.162;13.574;2023-05-27T09:39:09;18.80;99.90
1417;DHT22;703;51.162;13.574;2023-05-27T09:41:36;18.70;99.90
1417;DHT22;703;51.162;13.574;2023-05-27T09:44:02;19.30;99.90
1417;DHT22;703;51.162;13.574;2023-05-27T09:46:29;18.80;99.90
1417;DHT22;703;51.162;13.574;2023-05-27T09:48:57;19.20;99.90
1417;DHT22;703;51.162;13.574;2023-05-27T09:51:23;19.30;99.90
1417;DHT22;703;51.162;13.574;2023-05-27T09:53:49;19.30;99.90
1417;DHT22;703;51.162;13.574;2023-05-27T09:56:16;19.40;99.90
1417;DHT22;703;51.162;13.574;2023-05-27T09:58:41;19.20;99.90
1417;DHT22;703;51.162;13.574;2023-05-27T10:01:08;19.80;99.90
1417;DHT22;703;51.162;13.574;2023-05-27T10:03:34;19.80;99.90
1417;DHT22;703;51.162;13.574;2023-05-27T10:06:00;20.00;99.90
1417;DHT22;703;51.162;13.574;2023-05-27T10:08:26;19.80;99.90
1417;DHT22;703;51.162;13.574;2023-05-27T10:10:52;19.20;99.90
1417;DHT22;703;51.162;13.574;2023-05-27T10:13:18;19.20;99.90
1417;DHT22;703;51.162;13.574;2023-05-27T10:15:46;19.90;99.90
1417;DHT22;703;51.162;13.574;2023-05-27T10:18:21;19.80;99.90
1417;DHT22;703;51.162;13.574;2023-05-27T10:20:49;19.70;99.90
1417;DHT22;703;51.162;13.574;2023-05-27T10:23:18;19.80;99.90
1417;DHT22;703;51.162;13.574;2023-05-27T10:25:45;19.50;99.90
1417;DHT22;703;51.162;13.574;2023-05-27T10:28:12;19.50;99.90
1417;DHT22;703;51.162;13.574;2023-05-27T10:30:47;19.90;99.90
1417;DHT22;703;51.162;13.574;2023-05-27T10:33:13;20.50;99.90
1417;DHT22;703;51.162;13.574;2023-05-27T10:35:39;19.90;99.90
1417;DHT22;703;51.162;13.574;2023-05-27T10:38:15;20.20;99.90
1417;DHT22;703;51.162;13.574;2023-05-27T10:40:41;20.30;99.90
1417;DHT22;703;51.162;13.574;2023-05-27T10:43:06;20.60;99.90
1417;DHT22;703;51.162;13.574;2023-05-27T10:45:40;20.60;99.90
1417;DHT22;703;51.162;13.574;2023-05-27T10:48:14;21.00;99.90
1417;DHT22;703;51.162;13.574;2023-05-27T10:50:40;20.80;99.90
1417;DHT22;703;51.162;13.574;2023-05-27T10:53:07;21.10;99.90
1417;DHT22;703;51.162;13.574;2023-05-27T10:55:32;21.40;99.90
1417;DHT22;703;51.162;13.574;2023-05-27T10:57:58;20.90;99.90
1417;DHT22;703;51.162;13.574;2023-05-27T11:00:23;21.00;99.90
1417;DHT22;703;51.162;13.574;2023-05-27T11:02:51;20.90;99.90
1417;DHT22;703;51.162;13.574;2023-05-27T11:05:19;21.10;99.90
1417;DHT22;703;51.162;13.574;2023-05-27T11:07:44;21.40;99.90
1417;DHT22;703;51.162;13.574;2023-05-27T11:10:10;20.90;99.90
1417;DHT22;703;51.162;13.574;2023-05-27T11:12:35;21.00;99.90
1417;DHT22;703;51.162;13.574;2023-05-27T11:15:01;21.40;99.90
1417;DHT22;703;51.162;13.574;2023-05-27T11:17:27;21.30;99.90
1417;DHT22;703;51.162;13.574;2023-05-27T11:19:54;21.20;99.90
1417;DHT22;703;51.162;13.574;2023-05-27T11:22:19;21.70;99.90
1417;DHT22;703;51.162;13.574;2023-05-27T11:24:58;21.60;99.90
1417;DHT22;703;51.162;13.574;2023-05-27T11:27:23;21.50;99.90
1417;DHT22;703;51.162;13.574;2023-05-27T11:29:50;21.80;99.90
1417;DHT22;703;51.162;13.574;2023-05-27T11:32:16;22.10;99.90
1417;DHT22;703;51.162;13.574;2023-05-27T11:34:45;22.10;99.90
1417;DHT22;703;51.162;13.574;2023-05-27T11:37:12;22.00;99.90
1417;DHT22;703;51.162;13.574;2023-05-27T11:39:48;22.30;99.90
1417;DHT22;703;51.162;13.574;2023-05-27T11:42:13;23.00;99.90
1417;DHT22;703;51.162;13.574;2023-05-27T11:44:49;22.30;99.90
1417;DHT22;703;51.162;13.574;2023-05-27T11:47:14;22.00;99.90
1417;DHT22;703;51.162;13.574;2023-05-27T11:49:41;22.10;99.90
1417;DHT22;703;51.162;13.574;2023-05-27T11:52:07;22.00;99.90
1417;DHT22;703;51.162;13.574;2023-05-27T11:54:32;22.20;99.90
1417;DHT22;703;51.162;13.574;2023-05-27T11:56:58;22.70;99.90
1417;DHT22;703;51.162;13.574;2023-05-27T11:59:28;22.30;99.90
1417;DHT22;703;51.162;13.574;2023-05-27T12:01:54;22.50;99.90
1417;DHT22;703;51.162;13.574;2023-05-27T12:04:19;22.60;99.90
1417;DHT22;703;51.162;13.574;2023-05-27T12:06:45;22.60;99.90
1417;DHT22;703;51.162;13.574;2023-05-27T12:09:11;22.80;99.90
1417;DHT22;703;51.162;13.574;2023-05-27T12:11:37;22.10;99.90
1417;DHT22;703;51.162;13.574;2023-05-27T12:14:03;21.90;99.90
1417;DHT22;703;51.162;13.574;2023-05-27T12:16:28;21.90;99.90
1417;DHT22;703;51.162;13.574;2023-05-27T12:18:54;22.30;99.90
1417;DHT22;703;51.162;13.574;2023-05-27T12:21:20;22.60;99.90
1417;DHT22;703;51.162;13.574;2023-05-27T12:23:45;22.50;99.90
1417;DHT22;703;51.162;13.574;2023-05-27T12:26:12;23.00;99.90
1417;DHT22;703;51.162;13.574;2023-05-27T12:28:37;23.30;99.90
1417;DHT22;703;51.162;13.574;2023-05-27T12:31:03;23.40;99.90
1417;DHT22;703;51.162;13.574;2023-05-27T12:33:29;23.60;99.90
1417;DHT22;703;51.162;13.574;2023-05-27T12:35:55;23.90;99.90
1417;DHT22;703;51.162;13.574;2023-05-27T12:38:21;23.70;99.90
1417;DHT22;703;51.162;13.574;2023-05-27T12:40:46;23.60;99.90
1417;DHT22;703;51.162;13.574;2023-05-27T12:43:14;23.40;99.90
1417;DHT22;703;51.162;13.574;2023-05-27T12:45:39;22.70;99.90
1417;DHT22;703;51.162;13.574;2023-05-27T12:48:05;23.00;99.90
1417;DHT22;703;51.162;13.574;2023-05-27T12:50:31;23.60;99.90
1417;DHT22;703;51.162;13.574;2023-05-27T12:52:57;23.60;99.90
1417;DHT22;703;51.162;13.574;2023-05-27T12:55:22;23.60;99.90
1417;DHT22;703;51.162;13.574;2023-05-27T12:57:49;23.50;99.90
1417;DHT22;703;51.162;13.574;2023-05-27T13:00:15;23.90;99.90
1417;DHT22;703;51.162;13.574;2023-05-27T13:02:44;23.80;99.90
1417;DHT22;703;51.162;13.574;2023-05-27T13:05:09;24.60;99.90
1417;DHT22;703;51.162;13.574;2023-05-27T13:07:36;24.50;99.90
1417;DHT22;703;51.162;13.574;2023-05-27T13:10:03;24.20;99.90
1417;DHT22;703;51.162;13.574;2023-05-27T13:12:29;24.00;99.90
1417;DHT22;703;51.162;13.574;2023-05-27T13:14:54;24.10;99.90
1417;DHT22;703;51.162;13.574;2023-05-27T13:17:21;24.00;99.90
1417;DHT22;703;51.162;13.574;2023-05-27T13:19:47;24.20;99.90
1417;DHT22;703;51.162;13.574;2023-05-27T13:22:12;23.50;99.90
1417;DHT22;703;51.162;13.574;2023-05-27T13:24:39;23.10;99.90
1417;DHT22;703;51.162;13.574;2023-05-27T13:27:05;23.40;99.90
1417;DHT22;703;51.162;13.574;2023-05-27T13:29:32;24.10;99.90
1417;DHT22;703;51.162;13.574;2023-05-27T13:31:57;24.50;99.90
1417;DHT22;703;51.162;13.574;2023-05-27T13:34:23;24.30;99.90
1417;DHT22;703;51.162;13.574;2023-05-27T13:36:49;23.70;99.90
1417;DHT22;703;51.162;13.574;2023-05-27T13:39:15;23.70;99.90
1417;DHT22;703;51.162;13.574;2023-05-27T13:41:40;23.50;99.90
1417;DHT22;703;51.162;13.574;2023-05-27T13:44:06;23.10;99.90
1417;DHT22;703;51.162;13.574;2023-05-27T13:46:31;24.10;99.90
1417;DHT22;703;51.162;13.574;2023-05-27T13:48:57;24.30;99.90
1417;DHT22;703;51.162;13.574;2023-05-27T13:51:22;24.40;99.90
1417;DHT22;703;51.162;13.574;2023-05-27T13:53:48;24.40;99.90
1417;DHT22;703;51.162;13.574;2023-05-27T13:56:16;24.10;99.90
1417;DHT22;703;51.162;13.574;2023-05-27T13:58:42;23.80;99.90
1417;DHT22;703;51.162;13.574;2023-05-27T14:01:08;23.80;99.90
1417;DHT22;703;51.162;13.574;2023-05-27T14:03:33;23.70;99.90
1417;DHT22;703;51.162;13.574;2023-05-27T14:05:59;23.90;99.90
1417;DHT22;703;51.162;13.574;2023-05-27T14:08:25;23.10;99.90
1417;DHT22;703;51.162;13.574;2023-05-27T14:10:50;23.40;99.90
1417;DHT22;703;51.162;13.574;2023-05-27T14:13:16;24.40;99.90
1417;DHT22;703;51.162;13.574;2023-05-27T14:15:41;23.80;99.90
1417;DHT22;703;51.162;13.574;2023-05-27T14:18:07;23.70;99.90
1417;DHT22;703;51.162;13.574;2023-05-27T14:20:33;23.90;99.90
1417;DHT22;703;51.162;13.574;2023-05-27T14:22:58;24.00;99.90
1417;DHT22;703;51.162;13.574;2023-05-27T14:25:25;23.90;99.90
1417;DHT22;703;51.162;13.574;2023-05-27T14:27:50;24.20;99.90
1417;DHT22;703;51.162;13.574;2023-05-27T14:30:16;24.10;99.90
1417;DHT22;703;51.162;13.574;2023-05-27T14:32:41;24.20;99.90
1417;DHT22;703;51.162;13.574;2023-05-27T14:35:07;24.70;99.90
1417;DHT22;703;51.162;13.574;2023-05-27T14:37:33;24.20;99.90
1417;DHT22;703;51.162;13.574;2023-05-27T14:39:58;24.20;99.90
1417;DHT22;703;51.162;13.574;2023-05-27T14:42:24;24.20;99.90
1417;DHT22;703;51.162;13.574;2023-05-27T14:44:50;24.70;99.90
1417;DHT22;703;51.162;13.574;2023-05-27T14:47:15;24.40;99.90
1417;DHT22;703;51.162;13.574;2023-05-27T14:49:40;24.00;99.90
1417;DHT22;703;51.162;13.574;2023-05-27T14:52:06;23.80;99.90
1417;DHT22;703;51.162;13.574;2023-05-27T14:54:32;24.00;99.90
1417;DHT22;703;51.162;13.574;2023-05-27T14:56:57;24.30;99.90
1417;DHT22;703;51.162;13.574;2023-05-27T14:59:23;25.10;99.90
1417;DHT22;703;51.162;13.574;2023-05-27T15:01:48;24.50;99.90
1417;DHT22;703;51.162;13.574;2023-05-27T15:04:14;24.40;99.90
1417;DHT22;703;51.162;13.574;2023-05-27T15:06:40;25.10;99.90
1417;DHT22;703;51.162;13.574;2023-05-27T15:09:05;24.50;99.90
1417;DHT22;703;51.162;13.574;2023-05-27T15:11:32;24.80;99.90
1417;DHT22;703;51.162;13.574;2023-05-27T15:13:58;24.60;99.90
1417;DHT22;703;51.162;13.574;2023-05-27T15:16:25;24.40;99.90
1417;DHT22;703;51.162;13.574;2023-05-27T15:18:50;23.40;99.90
1417;DHT22;703;51.162;13.574;2023-05-27T15:21:16;23.90;99.90
1417;DHT22;703;51.162;13.574;2023-05-27T15:23:41;23.90;99.90
1417;DHT22;703;51.162;13.574;2023-05-27T15:26:08;23.70;99.90
1417;DHT22;703;51.162;13.574;2023-05-27T15:28:34;23.20;99.90
1417;DHT22;703;51.162;13.574;2023-05-27T15:30:59;23.70;99.90
1417;DHT22;703;51.162;13.574;2023-05-27T15:33:25;23.90;99.90
1417;DHT22;703;51.162;13.574;2023-05-27T15:35:50;23.20;99.90
1417;DHT22;703;51.162;13.574;2023-05-27T15:38:16;23.70;99.90
1417;DHT22;703;51.162;13.574;2023-05-27T15:40:42;24.10;99.90
1417;DHT22;703;51.162;13.574;2023-05-27T15:43:09;24.10;99.90
1417;DHT22;703;51.162;13.574;2023-05-27T15:45:35;24.30;99.90
1417;DHT22;703;51.162;13.574;2023-05-27T15:48:01;24.00;99.90
1417;DHT22;703;51.162;13.574;2023-05-27T15:50:26;23.50;99.90
1417;DHT22;703;51.162;13.574;2023-05-27T15:52:52;24.00;99.90
1417;DHT22;703;51.162;13.574;2023-05-27T15:55:18;23.60;99.90
1417;DHT22;703;51.162;13.574;2023-05-27T15:57:43;23.40;99.90
1417;DHT22;703;51.162;13.574;2023-05-27T16:00:11;24.00;99.90
1417;DHT22;703;51.162;13.574;2023-05-27T16:02:36;23.40;99.90